createdAt,value
2023-02-11T00:01:38.386Z,54.92
2023-02-11T00:04:07.560Z,55.11
2023-02-11T00:06:36.549Z,55.04
2023-02-11T00:09:06.384Z,55.39
2023-02-11T00:11:35.249Z,55.25
2023-02-11T00:14:08.684Z,54.86
2023-02-11T00:16:37.403Z,54.70
2023-02-11T00:19:06.888Z,54.91
2023-02-11T00:21:35.562Z,54.63
2023-02-11T00:24:05.147Z,54.66
2023-02-11T00:26:35.805Z,54.93
2023-02-11T00:29:05.319Z,54.78
2023-02-11T00:31:34.742Z,54.77
2023-02-11T00:34:03.450Z,54.92
2023-02-11T00:36:32.183Z,54.51
2023-02-11T00:39:01.280Z,54.81
2023-02-11T00:41:30.553Z,54.01
2023-02-11T00:44:02.924Z,53.65
2023-02-11T00:46:31.754Z,53.50
2023-02-11T00:49:01.052Z,54.35
2023-02-11T00:51:29.809Z,54.31
2023-02-11T00:53:58.369Z,53.89
2023-02-11T00:56:27.604Z,54.13
2023-02-11T00:58:58.307Z,53.66
2023-02-11T01:01:27.620Z,53.83
2023-02-11T01:03:56.585Z,54.03
2023-02-11T01:06:25.431Z,54.59
2023-02-11T01:08:54.070Z,54.38
2023-02-11T01:11:23.051Z,54.39
2023-02-11T01:13:51.844Z,55.01
2023-02-11T01:16:21.736Z,54.75
2023-02-11T01:18:50.670Z,54.29
2023-02-11T01:21:19.615Z,54.42
2023-02-11T01:23:48.345Z,55.31
2023-02-11T01:26:17.476Z,55.25
2023-02-11T01:28:46.184Z,55.23
2023-02-11T01:31:15.539Z,55.13
2023-02-11T01:33:44.298Z,55.75
2023-02-11T01:36:13.355Z,54.95
2023-02-11T01:38:42.108Z,55.50
2023-02-11T01:41:13.428Z,55.74
2023-02-11T01:43:49.781Z,56.05
2023-02-11T01:46:36.188Z,56.06
2023-02-11T01:49:38.123Z,55.35
2023-02-11T01:52:29.581Z,55.81
2023-02-11T01:55:25.516Z,55.56
2023-02-11T01:58:00.305Z,54.79
2023-02-11T02:00:39.319Z,54.63
2023-02-11T02:03:20.347Z,54.88
2023-02-11T02:06:35.440Z,55.19
2023-02-11T02:09:17.105Z,56.00
2023-02-11T02:11:45.887Z,55.23
2023-02-11T02:14:14.675Z,54.95
2023-02-11T02:16:43.370Z,55.26
2023-02-11T02:19:30.267Z,54.85
2023-02-11T02:22:33.053Z,54.68
2023-02-11T02:25:26.658Z,54.26
2023-02-11T02:28:39.951Z,54.61
2023-02-11T02:31:47.542Z,54.85
2023-02-11T02:34:47.059Z,54.15
2023-02-11T02:37:52.265Z,54.65
2023-02-11T02:40:38.392Z,54.38
2023-02-11T02:43:10.300Z,54.99
2023-02-11T02:45:39.069Z,54.80
2023-02-11T02:48:07.831Z,54.67
2023-02-11T02:50:38.408Z,55.30
2023-02-11T02:53:32.577Z,55.05
2023-02-11T02:56:35.944Z,54.76
2023-02-11T02:59:27.772Z,53.83
2023-02-11T03:02:16.217Z,54.17
2023-02-11T03:05:05.289Z,54.37
2023-02-11T03:08:10.800Z,53.96
2023-02-11T03:10:45.787Z,53.81
2023-02-11T03:13:17.754Z,54.35
2023-02-11T03:15:53.358Z,54.00
2023-02-11T03:18:26.878Z,54.14
2023-02-11T03:20:57.201Z,54.32
2023-02-11T03:23:55.938Z,54.31
2023-02-11T03:26:43.224Z,54.34
2023-02-11T03:29:55.344Z,54.74
2023-02-11T03:32:37.137Z,54.75
2023-02-11T03:35:36.309Z,55.04
2023-02-11T03:38:16.184Z,54.84
2023-02-11T03:40:46.185Z,54.65
2023-02-11T03:43:24.430Z,54.43
2023-02-11T03:45:54.688Z,54.52
2023-02-11T03:48:32.308Z,54.78
2023-02-11T03:51:06.832Z,55.06
2023-02-11T03:53:38.993Z,55.05
2023-02-11T03:56:14.847Z,55.22
2023-02-11T03:58:46.407Z,56.70
2023-02-11T04:01:15.762Z,55.51
2023-02-11T04:03:44.492Z,54.84
2023-02-11T04:06:13.171Z,55.17
2023-02-11T04:08:41.852Z,55.04
2023-02-11T04:11:10.671Z,54.96
2023-02-11T04:13:39.365Z,55.93
2023-02-11T04:16:08.298Z,56.48
2023-02-11T04:18:36.905Z,56.67
2023-02-11T04:21:06.426Z,55.33
2023-02-11T04:23:35.204Z,54.75
2023-02-11T04:26:04.524Z,55.07
2023-02-11T04:28:33.309Z,55.03
2023-02-11T04:31:02.450Z,54.54
2023-02-11T04:33:31.170Z,55.52
2023-02-11T04:35:59.960Z,55.45
2023-02-11T04:38:28.745Z,54.73
2023-02-11T04:40:58.509Z,55.02
2023-02-11T04:43:27.261Z,55.13
2023-02-11T04:45:59.225Z,55.42
2023-02-11T04:48:28.010Z,55.22
2023-02-11T04:50:56.796Z,54.42
2023-02-11T04:53:25.392Z,54.41
2023-02-11T04:55:54.159Z,54.87
2023-02-11T04:58:23.043Z,55.12
2023-02-11T05:00:51.762Z,54.86
2023-02-11T05:03:20.293Z,55.69
2023-02-11T05:05:49.151Z,55.36
2023-02-11T05:08:18.138Z,55.65
2023-02-11T05:10:48.321Z,54.90
2023-02-11T05:13:16.997Z,54.46
2023-02-11T05:15:45.921Z,54.58
2023-02-11T05:18:17.393Z,54.65
2023-02-11T05:20:46.066Z,55.27
2023-02-11T05:23:14.813Z,55.35
2023-02-11T05:25:43.603Z,55.23
2023-02-11T05:28:12.422Z,55.26
2023-02-11T05:30:41.265Z,54.97
2023-02-11T05:33:10.067Z,55.37
2023-02-11T05:35:38.959Z,55.28
2023-02-11T05:38:07.718Z,55.50
2023-02-11T05:40:37.176Z,55.39
2023-02-11T05:43:06.071Z,55.92
2023-02-11T05:45:35.295Z,56.37
2023-02-11T05:48:04.334Z,56.45
2023-02-11T05:50:32.885Z,55.55
2023-02-11T05:53:01.639Z,55.39
2023-02-11T05:55:30.395Z,55.50
2023-02-11T05:57:59.176Z,55.50
2023-02-11T06:00:28.180Z,55.35
2023-02-11T06:02:56.890Z,55.30
2023-02-11T06:05:25.851Z,55.17
2023-02-11T06:07:54.534Z,55.22
2023-02-11T06:10:23.147Z,55.23
2023-02-11T06:12:51.693Z,55.31
2023-02-11T06:15:20.557Z,54.85
2023-02-11T06:17:49.094Z,55.17
2023-02-11T06:20:18.063Z,55.31
2023-02-11T06:22:47.184Z,54.99
2023-02-11T06:25:16.151Z,55.24
2023-02-11T06:27:44.743Z,55.03
2023-02-11T06:30:14.765Z,55.11
2023-02-11T06:32:45.484Z,55.30
2023-02-11T06:35:15.062Z,55.00
2023-02-11T06:37:44.012Z,55.35
2023-02-11T06:40:13.492Z,55.56
2023-02-11T06:42:42.172Z,55.50
2023-02-11T06:45:13.262Z,54.80
2023-02-11T06:47:42.292Z,55.34
2023-02-11T06:50:14.724Z,55.61
2023-02-11T06:52:43.510Z,55.53
2023-02-11T06:55:12.233Z,55.14
2023-02-11T06:57:40.981Z,54.24
2023-02-11T07:00:10.606Z,54.08
2023-02-11T07:02:39.053Z,53.70
2023-02-11T07:05:08.337Z,53.39
2023-02-11T07:07:37.482Z,54.03
2023-02-11T07:10:06.975Z,53.60
2023-02-11T07:12:35.582Z,53.81
2023-02-11T07:15:04.922Z,53.17
2023-02-11T07:17:36.168Z,53.44
2023-02-11T07:20:05.261Z,53.47
2023-02-11T07:22:35.062Z,53.39
2023-02-11T07:25:04.628Z,53.99
2023-02-11T07:27:33.573Z,53.84
2023-02-11T07:30:02.174Z,53.63
2023-02-11T07:32:30.841Z,53.86
2023-02-11T07:34:59.391Z,52.84
2023-02-11T07:37:28.425Z,52.98
2023-02-11T07:39:58.215Z,52.91
2023-02-11T07:42:26.922Z,53.19
2023-02-11T07:44:55.595Z,53.45
2023-02-11T07:47:24.093Z,54.57
2023-02-11T07:49:56.158Z,54.77
2023-02-11T07:52:25.238Z,54.40
2023-02-11T07:54:54.023Z,54.22
2023-02-11T07:57:22.666Z,54.20
2023-02-11T07:59:51.191Z,53.75
2023-02-11T08:02:19.907Z,53.77
2023-02-11T08:04:48.541Z,54.40
2023-02-11T08:07:18.972Z,54.47
2023-02-11T08:09:47.817Z,53.62
2023-02-11T08:12:16.385Z,52.48
2023-02-11T08:14:44.938Z,52.80
2023-02-11T08:17:13.622Z,52.67
2023-02-11T08:19:42.236Z,53.07
2023-02-11T08:22:10.808Z,52.89
2023-02-11T08:24:39.387Z,52.37
2023-02-11T08:27:08.004Z,51.59
2023-02-11T08:29:36.741Z,51.52
2023-02-11T08:32:05.576Z,50.18
2023-02-11T08:34:34.660Z,49.71
2023-02-11T08:37:03.307Z,49.22
2023-02-11T08:39:31.906Z,49.82
2023-02-11T08:42:00.680Z,49.05
2023-02-11T08:44:30.207Z,48.02
2023-02-11T08:46:58.795Z,48.54
2023-02-11T08:49:27.363Z,49.19
2023-02-11T08:51:56.654Z,49.76
2023-02-11T08:54:25.398Z,49.97
2023-02-11T08:56:53.999Z,49.98
2023-02-11T08:59:23.015Z,49.58
2023-02-11T09:01:51.858Z,49.47
2023-02-11T09:04:20.564Z,50.28
2023-02-11T09:06:49.338Z,50.45
2023-02-11T09:09:18.119Z,49.69
2023-02-11T09:11:46.854Z,49.90
2023-02-11T09:14:23.049Z,49.83
2023-02-11T09:16:52.269Z,48.50
2023-02-11T09:19:21.641Z,49.17
2023-02-11T09:21:50.606Z,48.40
2023-02-11T09:24:19.729Z,46.60
2023-02-11T09:26:49.839Z,46.45
2023-02-11T09:29:18.551Z,47.07
2023-02-11T09:31:47.237Z,47.26
2023-02-11T09:34:16.324Z,47.63
2023-02-11T09:36:45.085Z,47.71
2023-02-11T09:39:20.620Z,47.02
2023-02-11T09:42:32.832Z,46.22
2023-02-11T09:45:02.977Z,46.95
2023-02-11T09:47:36.248Z,46.80
2023-02-11T09:50:15.255Z,45.57
2023-02-11T09:53:03.912Z,46.08
2023-02-11T09:55:42.207Z,46.20
2023-02-11T09:58:20.956Z,44.61
2023-02-11T10:01:19.425Z,45.98
2023-02-11T10:04:12.543Z,45.37
2023-02-11T10:06:54.617Z,45.22
2023-02-11T10:09:48.810Z,45.31
2023-02-11T10:12:36.015Z,43.22
2023-02-11T10:15:35.595Z,45.53
2023-02-11T10:18:38.237Z,44.72
2023-02-11T10:21:15.968Z,45.08
2023-02-11T10:23:52.159Z,45.37
2023-02-11T10:26:20.964Z,44.41
2023-02-11T10:28:54.689Z,42.19
2023-02-11T10:31:29.015Z,41.07
2023-02-11T10:34:12.998Z,43.07
2023-02-11T10:36:44.465Z,42.66
2023-02-11T10:39:23.305Z,42.08
2023-02-11T10:41:58.153Z,42.31
2023-02-11T10:44:44.348Z,44.17
2023-02-11T10:47:25.703Z,44.80
2023-02-11T10:49:54.489Z,44.69
2023-02-11T10:52:26.645Z,43.19
2023-02-11T10:55:25.596Z,42.37
2023-02-11T10:58:03.528Z,42.18
2023-02-11T11:00:43.686Z,42.43
2023-02-11T11:03:25.684Z,43.34
2023-02-11T11:06:07.184Z,44.49
2023-02-11T11:08:48.361Z,42.88
2023-02-11T11:11:23.217Z,43.01
2023-02-11T11:13:54.730Z,42.26
2023-02-11T11:16:26.960Z,42.00
2023-02-11T11:19:07.926Z,43.38
2023-02-11T11:21:50.711Z,43.69
2023-02-11T11:24:22.355Z,42.46
2023-02-11T11:26:57.627Z,42.53
2023-02-11T11:29:48.633Z,42.59
2023-02-11T11:32:27.526Z,43.54
2023-02-11T11:35:21.212Z,44.17
2023-02-11T11:37:56.809Z,43.94
2023-02-11T11:40:29.933Z,43.42
2023-02-11T11:43:14.489Z,43.30
2023-02-11T11:46:00.510Z,42.50
2023-02-11T11:48:37.886Z,42.91
2023-02-11T11:51:11.811Z,43.15
2023-02-11T11:53:58.822Z,42.99
2023-02-11T11:56:35.118Z,43.15
2023-02-11T11:59:14.054Z,42.98
2023-02-11T12:02:28.768Z,43.06
2023-02-11T12:05:36.459Z,42.84
2023-02-11T12:08:23.667Z,43.69
2023-02-11T12:10:55.112Z,41.81
2023-02-11T12:13:37.639Z,41.68
2023-02-11T12:16:39.639Z,42.56
2023-02-11T12:19:33.169Z,42.59
2023-02-11T12:22:10.164Z,42.32
2023-02-11T12:25:06.096Z,42.87
2023-02-11T12:28:16.489Z,43.20
2023-02-11T12:31:28.031Z,42.82
2023-02-11T12:34:35.828Z,43.83
2023-02-11T12:37:32.360Z,43.79
2023-02-11T12:40:19.212Z,43.96
2023-02-11T12:43:18.200Z,43.78
2023-02-11T12:46:33.622Z,44.21
2023-02-11T12:49:02.179Z,44.69
2023-02-11T12:52:31.397Z,44.93
2023-02-11T12:55:16.377Z,46.49
2023-02-11T12:57:46.772Z,46.64
2023-02-11T13:00:52.075Z,47.89
2023-02-11T13:03:48.383Z,48.14
2023-02-11T13:06:28.722Z,48.21
2023-02-11T13:09:05.884Z,46.54
2023-02-11T13:11:52.270Z,46.47
2023-02-11T13:14:41.235Z,46.46
2023-02-11T13:17:48.005Z,47.32
2023-02-11T13:20:36.654Z,47.42
2023-02-11T13:23:22.445Z,47.86
2023-02-11T13:26:04.441Z,47.94
2023-02-11T13:29:01.176Z,48.08
2023-02-11T13:31:30.423Z,47.83
2023-02-11T13:33:59.207Z,47.55
2023-02-11T13:36:32.961Z,47.71
2023-02-11T13:39:06.791Z,47.85
2023-02-11T13:41:42.015Z,47.90
2023-02-11T13:44:10.528Z,48.17
2023-02-11T13:47:05.203Z,47.89
2023-02-11T13:49:49.372Z,47.87
2023-02-11T13:52:31.367Z,47.74
2023-02-11T13:55:23.034Z,47.62
2023-02-11T13:58:06.847Z,47.59
2023-02-11T14:00:35.414Z,46.70
2023-02-11T14:03:31.369Z,47.11
2023-02-11T14:06:27.436Z,45.82
2023-02-11T14:09:09.677Z,46.86
2023-02-11T14:12:14.778Z,46.93
2023-02-11T14:15:21.257Z,47.17
2023-02-11T14:17:50.166Z,46.76
2023-02-11T14:20:44.238Z,46.72
2023-02-11T14:23:27.448Z,47.34
2023-02-11T14:26:25.930Z,47.85
2023-02-11T14:29:01.790Z,47.93
2023-02-11T14:31:55.255Z,48.40
2023-02-11T14:34:44.766Z,47.86
2023-02-11T14:37:50.638Z,46.64
2023-02-11T14:40:34.930Z,48.02
2023-02-11T14:43:27.217Z,47.70
2023-02-11T14:45:59.141Z,47.53
2023-02-11T14:48:32.732Z,47.78
2023-02-11T14:51:26.963Z,47.82
2023-02-11T14:54:17.420Z,47.78
2023-02-11T14:56:47.034Z,48.38
2023-02-11T14:59:21.941Z,48.48
2023-02-11T15:01:54.960Z,47.91
2023-02-11T15:04:31.933Z,48.30
2023-02-11T15:07:07.603Z,48.57
2023-02-11T15:09:50.846Z,48.91
2023-02-11T15:12:24.945Z,48.91
2023-02-11T15:14:58.922Z,49.12
2023-02-11T15:17:32.423Z,49.47
2023-02-11T15:20:02.836Z,49.03
2023-02-11T15:22:37.101Z,49.15
2023-02-11T15:25:20.649Z,49.17
2023-02-11T15:27:53.613Z,49.26
2023-02-11T15:30:22.199Z,49.10
2023-02-11T15:33:00.596Z,49.22
2023-02-11T15:35:41.293Z,49.30
2023-02-11T15:38:13.922Z,49.35
2023-02-11T15:41:01.127Z,49.81
2023-02-11T15:43:48.185Z,49.25
2023-02-11T15:46:21.523Z,49.27
2023-02-11T15:48:53.431Z,49.78
2023-02-11T15:51:29.823Z,49.20
2023-02-11T15:54:16.682Z,49.59
2023-02-11T15:56:55.736Z,49.66
2023-02-11T15:59:30.786Z,49.12
2023-02-11T16:02:16.435Z,49.59
2023-02-11T16:05:08.072Z,49.66
2023-02-11T16:07:49.893Z,49.63
2023-02-11T16:10:36.386Z,49.64
2023-02-11T16:13:07.894Z,49.69
2023-02-11T16:15:57.431Z,49.73
2023-02-11T16:18:38.454Z,49.55
2023-02-11T16:21:18.553Z,49.89
2023-02-11T16:23:56.549Z,49.50
2023-02-11T16:26:30.748Z,49.63
2023-02-11T16:29:07.299Z,49.52
2023-02-11T16:31:39.242Z,49.64
2023-02-11T16:34:25.702Z,49.36
2023-02-11T16:36:54.279Z,49.47
2023-02-11T16:39:23.138Z,49.17
2023-02-11T16:41:52.780Z,49.08
2023-02-11T16:44:21.300Z,48.91
2023-02-11T16:46:50.427Z,49.66
2023-02-11T16:49:29.154Z,49.27
2023-02-11T16:52:02.153Z,49.00
2023-02-11T16:54:31.019Z,49.04
2023-02-11T16:56:59.707Z,48.87
2023-02-11T16:59:28.698Z,49.37
2023-02-11T17:01:58.363Z,49.57
2023-02-11T17:04:30.486Z,49.96
2023-02-11T17:06:59.641Z,49.17
2023-02-11T17:09:30.864Z,49.67
2023-02-11T17:12:00.470Z,49.79
2023-02-11T17:14:29.661Z,49.86
2023-02-11T17:16:58.506Z,50.27
2023-02-11T17:19:27.061Z,50.08
2023-02-11T17:21:55.726Z,50.29
2023-02-11T17:24:24.254Z,49.90
2023-02-11T17:26:52.844Z,50.70
2023-02-11T17:29:24.738Z,50.32
2023-02-11T17:31:54.424Z,50.67
2023-02-11T17:34:23.978Z,50.21
2023-02-11T17:36:52.514Z,50.78
2023-02-11T17:39:21.383Z,51.01
2023-02-11T17:41:49.971Z,50.13
2023-02-11T17:44:18.694Z,50.22
2023-02-11T17:46:47.203Z,50.28
2023-02-11T17:49:16.648Z,50.10
2023-02-11T17:51:45.398Z,50.61
2023-02-11T17:54:19.513Z,51.02
2023-02-11T17:56:51.006Z,51.15
2023-02-11T17:59:21.034Z,51.52
2023-02-11T18:01:49.605Z,50.87
2023-02-11T18:04:20.137Z,51.46
2023-02-11T18:06:48.838Z,51.52
2023-02-11T18:09:17.498Z,51.83
2023-02-11T18:11:46.412Z,52.00
2023-02-11T18:14:14.984Z,52.31
2023-02-11T18:16:46.080Z,52.33
2023-02-11T18:19:14.720Z,52.08
2023-02-11T18:21:43.339Z,52.09
2023-02-11T18:24:11.927Z,52.01
2023-02-11T18:26:40.573Z,51.80
2023-02-11T18:29:09.160Z,51.41
2023-02-11T18:31:38.251Z,51.01
2023-02-11T18:34:10.841Z,51.53
2023-02-11T18:36:39.655Z,51.54
2023-02-11T18:39:08.497Z,51.39
2023-02-11T18:41:37.270Z,51.72
2023-02-11T18:44:05.892Z,50.43
2023-02-11T18:46:34.496Z,50.17
2023-02-11T18:49:03.222Z,50.66
2023-02-11T18:51:32.695Z,50.99
2023-02-11T18:54:02.148Z,51.30
2023-02-11T18:56:30.814Z,52.19
2023-02-11T18:59:01.531Z,51.02
2023-02-11T19:01:33.874Z,50.30
2023-02-11T19:04:05.343Z,51.46
2023-02-11T19:06:38.178Z,52.41
2023-02-11T19:09:11.494Z,51.70
2023-02-11T19:11:50.686Z,50.83
2023-02-11T19:14:26.290Z,50.00
2023-02-11T19:16:58.789Z,49.78
2023-02-11T19:19:31.924Z,50.01
2023-02-11T19:22:01.961Z,50.00
2023-02-11T19:24:31.071Z,49.96
2023-02-11T19:27:03.782Z,50.20
2023-02-11T19:29:35.437Z,50.57
2023-02-11T19:32:06.454Z,50.48
2023-02-11T19:34:41.435Z,50.62
2023-02-11T19:37:13.048Z,50.33
2023-02-11T19:39:43.076Z,50.57
2023-02-11T19:42:12.358Z,50.72
2023-02-11T19:44:41.179Z,50.81
2023-02-11T19:47:10.899Z,50.76
2023-02-11T19:49:39.770Z,51.29
2023-02-11T19:52:08.463Z,51.27
2023-02-11T19:54:38.689Z,51.23
2023-02-11T19:57:07.343Z,51.62
2023-02-11T19:59:35.892Z,51.90
2023-02-11T20:02:04.740Z,51.74
2023-02-11T20:04:33.509Z,51.78
2023-02-11T20:07:02.184Z,51.75
2023-02-11T20:09:31.988Z,52.21
2023-02-11T20:12:00.824Z,52.63
2023-02-11T20:14:29.393Z,52.55
2023-02-11T20:16:58.078Z,52.52
2023-02-11T20:19:28.212Z,52.65
2023-02-11T20:21:57.060Z,53.44
2023-02-11T20:24:26.575Z,54.19
2023-02-11T20:26:58.236Z,54.90
2023-02-11T20:29:27.578Z,53.85
2023-02-11T20:31:56.316Z,53.82
2023-02-11T20:34:25.646Z,54.06
2023-02-11T20:36:55.076Z,53.37
2023-02-11T20:39:25.437Z,53.73
2023-02-11T20:41:54.888Z,53.40
2023-02-11T20:44:24.293Z,53.44
2023-02-11T20:46:54.562Z,53.34
2023-02-11T20:49:25.183Z,52.77
2023-02-11T20:51:54.463Z,53.02
2023-02-11T20:54:24.507Z,52.89
2023-02-11T20:56:54.172Z,52.87
2023-02-11T20:59:22.847Z,52.93
2023-02-11T21:01:55.558Z,53.34
2023-02-11T21:04:28.922Z,53.49
2023-02-11T21:07:01.417Z,53.88
2023-02-11T21:09:33.712Z,54.00
2023-02-11T21:12:03.222Z,54.63
2023-02-11T21:14:31.940Z,54.69
2023-02-11T21:17:00.735Z,54.98
2023-02-11T21:19:29.624Z,54.84
2023-02-11T21:22:00.898Z,54.67
2023-02-11T21:24:31.206Z,54.59
2023-02-11T21:26:59.986Z,54.32
2023-02-11T21:29:29.216Z,54.08
2023-02-11T21:31:57.958Z,54.26
2023-02-11T21:34:26.765Z,53.78
2023-02-11T21:36:55.447Z,54.27
2023-02-11T21:39:24.085Z,54.06
2023-02-11T21:41:52.819Z,53.84
2023-02-11T21:44:21.506Z,54.14
2023-02-11T21:46:50.351Z,54.13
2023-02-11T21:49:20.438Z,54.63
2023-02-11T21:51:49.103Z,54.84
2023-02-11T21:54:19.112Z,55.08
2023-02-11T21:56:51.866Z,55.11
2023-02-11T21:59:20.581Z,55.09
2023-02-11T22:01:49.363Z,54.68
2023-02-11T22:04:18.216Z,55.01
2023-02-11T22:06:47.044Z,54.74
2023-02-11T22:09:16.052Z,55.41
2023-02-11T22:11:44.926Z,55.00
2023-02-11T22:14:13.533Z,55.16
2023-02-11T22:16:45.860Z,55.24
2023-02-11T22:19:15.245Z,55.03
2023-02-11T22:21:43.970Z,55.50
2023-02-11T22:24:12.794Z,55.50
2023-02-11T22:26:41.556Z,56.05
2023-02-11T22:29:11.376Z,56.03
2023-02-11T22:31:40.145Z,56.12
2023-02-11T22:34:08.826Z,55.99
2023-02-11T22:36:40.624Z,56.06
2023-02-11T22:39:15.977Z,56.81
2023-02-11T22:41:46.590Z,56.85
2023-02-11T22:44:20.240Z,57.42
2023-02-11T22:46:49.293Z,57.80
2023-02-11T22:49:19.902Z,57.45
2023-02-11T22:51:48.814Z,58.32
2023-02-11T22:54:19.360Z,58.46
2023-02-11T22:56:51.560Z,59.41
2023-02-11T22:59:20.880Z,60.15
2023-02-11T23:01:50.424Z,60.58
2023-02-11T23:04:19.578Z,61.60
2023-02-11T23:06:48.182Z,62.53
2023-02-11T23:09:17.350Z,62.28
2023-02-11T23:11:47.169Z,62.24
2023-02-11T23:14:15.952Z,63.03
2023-02-11T23:16:44.807Z,63.63
2023-02-11T23:19:13.672Z,64.16
2023-02-11T23:21:42.518Z,64.70
2023-02-11T23:24:14.202Z,65.32
2023-02-11T23:26:44.497Z,66.25
2023-02-11T23:29:13.593Z,66.60
2023-02-11T23:31:45.464Z,66.71
2023-02-11T23:34:17.413Z,67.44
2023-02-11T23:36:46.343Z,67.50
2023-02-11T23:39:16.437Z,67.89
2023-02-11T23:41:46.000Z,68.01
2023-02-11T23:44:14.623Z,68.54
2023-02-11T23:46:43.528Z,68.93
2023-02-11T23:49:12.236Z,69.32
2023-02-11T23:51:40.891Z,69.53
2023-02-11T23:54:14.085Z,69.84
2023-02-11T23:56:42.877Z,69.71
2023-02-11T23:59:11.967Z,69.94
